sensor_id;sensor_type;location;lat;lon;timestamp;P1;durP1;ratioP1;P2;durP2;ratioP2
23155;SDS011;11746;50.876;4.246;2023-11-19T00:01:06;9.38;;;3.47;;
23155;SDS011;11746;50.876;4.246;2023-11-19T00:03:32;8.65;;;3.47;;
23155;SDS011;11746;50.876;4.246;2023-11-19T00:05:58;7.68;;;3.78;;
23155;SDS011;11746;50.876;4.246;2023-11-19T00:08:24;10.13;;;3.70;;
23155;SDS011;11746;50.876;4.246;2023-11-19T00:10:50;9.88;;;3.13;;
23155;SDS011;11746;50.876;4.246;2023-11-19T00:13:16;7.90;;;3.42;;
23155;SDS011;11746;50.876;4.246;2023-11-19T00:15:44;10.90;;;3.60;;
23155;SDS011;11746;50.876;4.246;2023-11-19T00:18:10;12.38;;;3.60;;
23155;SDS011;11746;50.876;4.246;2023-11-19T00:20:36;8.80;;;2.97;;
23155;SDS011;11746;50.876;4.246;2023-11-19T00:23:03;8.68;;;3.20;;
23155;SDS011;11746;50.876;4.246;2023-11-19T00:25:34;13.07;;;3.40;;
23155;SDS011;11746;50.876;4.246;2023-11-19T00:27:59;10.95;;;3.50;;
23155;SDS011;11746;50.876;4.246;2023-11-19T00:30:25;12.48;;;3.03;;
23155;SDS011;11746;50.876;4.246;2023-11-19T00:32:50;12.70;;;3.05;;
23155;SDS011;11746;50.876;4.246;2023-11-19T00:35:18;10.77;;;2.78;;
23155;SDS011;11746;50.876;4.246;2023-11-19T00:37:44;12.35;;;3.83;;
23155;SDS011;11746;50.876;4.246;2023-11-19T00:40:12;11.50;;;3.20;;
23155;SDS011;11746;50.876;4.246;2023-11-19T00:42:39;9.07;;;2.75;;
23155;SDS011;11746;50.876;4.246;2023-11-19T00:45:05;11.15;;;3.08;;
23155;SDS011;11746;50.876;4.246;2023-11-19T00:47:34;9.77;;;2.70;;
23155;SDS011;11746;50.876;4.246;2023-11-19T00:50:01;9.05;;;2.72;;
23155;SDS011;11746;50.876;4.246;2023-11-19T00:52:30;13.30;;;2.50;;
23155;SDS011;11746;50.876;4.246;2023-11-19T00:54:57;12.52;;;3.25;;
23155;SDS011;11746;50.876;4.246;2023-11-19T00:57:26;13.63;;;2.55;;
23155;SDS011;11746;50.876;4.246;2023-11-19T00:59:52;14.20;;;2.92;;
23155;SDS011;11746;50.876;4.246;2023-11-19T01:02:17;13.45;;;2.63;;
23155;SDS011;11746;50.876;4.246;2023-11-19T01:04:43;14.27;;;2.97;;
23155;SDS011;11746;50.876;4.246;2023-11-19T01:07:11;10.80;;;2.35;;
23155;SDS011;11746;50.876;4.246;2023-11-19T01:09:37;12.57;;;3.10;;
23155;SDS011;11746;50.876;4.246;2023-11-19T01:12:06;9.82;;;2.80;;
23155;SDS011;11746;50.876;4.246;2023-11-19T01:14:31;15.88;;;2.38;;
23155;SDS011;11746;50.876;4.246;2023-11-19T01:16:57;14.27;;;2.80;;
23155;SDS011;11746;50.876;4.246;2023-11-19T01:19:23;19.92;;;3.08;;
23155;SDS011;11746;50.876;4.246;2023-11-19T01:21:49;18.10;;;3.53;;
23155;SDS011;11746;50.876;4.246;2023-11-19T01:24:18;18.92;;;3.50;;
23155;SDS011;11746;50.876;4.246;2023-11-19T01:26:44;15.48;;;3.38;;
23155;SDS011;11746;50.876;4.246;2023-11-19T01:29:13;13.93;;;2.80;;
23155;SDS011;11746;50.876;4.246;2023-11-19T01:31:40;15.75;;;4.47;;
23155;SDS011;11746;50.876;4.246;2023-11-19T01:34:08;17.13;;;3.30;;
23155;SDS011;11746;50.876;4.246;2023-11-19T01:36:35;16.85;;;3.45;;
23155;SDS011;11746;50.876;4.246;2023-11-19T01:39:00;17.95;;;3.58;;
23155;SDS011;11746;50.876;4.246;2023-11-19T01:41:29;13.02;;;3.22;;
23155;SDS011;11746;50.876;4.246;2023-11-19T01:43:58;17.92;;;3.55;;
23155;SDS011;11746;50.876;4.246;2023-11-19T01:46:26;20.17;;;4.18;;
23155;SDS011;11746;50.876;4.246;2023-11-19T01:48:52;20.65;;;4.30;;
23155;SDS011;11746;50.876;4.246;2023-11-19T01:51:19;16.75;;;3.13;;
23155;SDS011;11746;50.876;4.246;2023-11-19T01:53:46;19.42;;;4.00;;
23155;SDS011;11746;50.876;4.246;2023-11-19T01:56:13;16.35;;;2.95;;
23155;SDS011;11746;50.876;4.246;2023-11-19T01:58:43;20.85;;;4.35;;
23155;SDS011;11746;50.876;4.246;2023-11-19T02:01:13;14.80;;;3.00;;
23155;SDS011;11746;50.876;4.246;2023-11-19T02:03:42;19.40;;;3.78;;
23155;SDS011;11746;50.876;4.246;2023-11-19T02:06:10;14.23;;;2.60;;
23155;SDS011;11746;50.876;4.246;2023-11-19T02:08:38;16.45;;;3.53;;
23155;SDS011;11746;50.876;4.246;2023-11-19T02:11:04;19.58;;;3.00;;
23155;SDS011;11746;50.876;4.246;2023-11-19T02:13:32;17.40;;;3.00;;
23155;SDS011;11746;50.876;4.246;2023-11-19T02:15:58;20.40;;;3.30;;
23155;SDS011;11746;50.876;4.246;2023-11-19T02:18:25;16.58;;;2.75;;
23155;SDS011;11746;50.876;4.246;2023-11-19T02:20:53;17.58;;;3.15;;
23155;SDS011;11746;50.876;4.246;2023-11-19T02:23:25;19.35;;;3.58;;
23155;SDS011;11746;50.876;4.246;2023-11-19T02:28:43;17.25;;;3.08;;
23155;SDS011;11746;50.876;4.246;2023-11-19T02:31:09;17.15;;;3.50;;
23155;SDS011;11746;50.876;4.246;2023-11-19T02:33:36;18.13;;;3.35;;
23155;SDS011;11746;50.876;4.246;2023-11-19T02:36:05;20.25;;;3.28;;
23155;SDS011;11746;50.876;4.246;2023-11-19T02:38:34;19.58;;;3.50;;
23155;SDS011;11746;50.876;4.246;2023-11-19T02:41:04;17.50;;;3.13;;
23155;SDS011;11746;50.876;4.246;2023-11-19T02:43:31;20.92;;;3.25;;
23155;SDS011;11746;50.876;4.246;2023-11-19T02:46:03;24.85;;;3.35;;
23155;SDS011;11746;50.876;4.246;2023-11-19T02:48:32;15.15;;;2.65;;
23155;SDS011;11746;50.876;4.246;2023-11-19T02:51:01;15.98;;;3.05;;
23155;SDS011;11746;50.876;4.246;2023-11-19T02:53:28;16.92;;;3.35;;
23155;SDS011;11746;50.876;4.246;2023-11-19T02:55:59;16.02;;;2.50;;
23155;SDS011;11746;50.876;4.246;2023-11-19T02:58:36;17.63;;;2.92;;
23155;SDS011;11746;50.876;4.246;2023-11-19T03:01:02;17.00;;;3.03;;
23155;SDS011;11746;50.876;4.246;2023-11-19T03:03:37;14.32;;;3.45;;
23155;SDS011;11746;50.876;4.246;2023-11-19T03:06:07;17.83;;;3.13;;
23155;SDS011;11746;50.876;4.246;2023-11-19T03:08:35;17.27;;;2.92;;
23155;SDS011;11746;50.876;4.246;2023-11-19T03:11:01;20.75;;;3.58;;
23155;SDS011;11746;50.876;4.246;2023-11-19T03:13:29;13.85;;;3.00;;
23155;SDS011;11746;50.876;4.246;2023-11-19T03:15:55;13.65;;;3.10;;
23155;SDS011;11746;50.876;4.246;2023-11-19T03:18:23;16.05;;;2.80;;
23155;SDS011;11746;50.876;4.246;2023-11-19T03:20:49;19.63;;;3.92;;
23155;SDS011;11746;50.876;4.246;2023-11-19T03:23:17;20.20;;;3.63;;
23155;SDS011;11746;50.876;4.246;2023-11-19T03:25:45;21.02;;;3.53;;
23155;SDS011;11746;50.876;4.246;2023-11-19T03:28:10;18.42;;;3.28;;
23155;SDS011;11746;50.876;4.246;2023-11-19T03:30:36;18.73;;;3.08;;
23155;SDS011;11746;50.876;4.246;2023-11-19T03:33:06;19.90;;;3.45;;
23155;SDS011;11746;50.876;4.246;2023-11-19T03:35:32;24.15;;;3.10;;
23155;SDS011;11746;50.876;4.246;2023-11-19T03:38:02;25.77;;;3.50;;
23155;SDS011;11746;50.876;4.246;2023-11-19T03:40:28;17.40;;;3.03;;
23155;SDS011;11746;50.876;4.246;2023-11-19T03:42:55;18.33;;;3.60;;
23155;SDS011;11746;50.876;4.246;2023-11-19T03:45:23;20.40;;;2.78;;
23155;SDS011;11746;50.876;4.246;2023-11-19T03:47:48;28.10;;;3.17;;
23155;SDS011;11746;50.876;4.246;2023-11-19T03:50:15;27.55;;;3.78;;
23155;SDS011;11746;50.876;4.246;2023-11-19T03:52:41;23.35;;;4.25;;
23155;SDS011;11746;50.876;4.246;2023-11-19T03:55:07;19.55;;;3.50;;
23155;SDS011;11746;50.876;4.246;2023-11-19T03:57:33;20.48;;;3.33;;
23155;SDS011;11746;50.876;4.246;2023-11-19T03:59:59;19.75;;;3.03;;
23155;SDS011;11746;50.876;4.246;2023-11-19T04:02:31;21.20;;;3.50;;
23155;SDS011;11746;50.876;4.246;2023-11-19T04:04:56;17.38;;;3.00;;
23155;SDS011;11746;50.876;4.246;2023-11-19T04:07:22;22.52;;;3.28;;
23155;SDS011;11746;50.876;4.246;2023-11-19T04:09:48;22.77;;;4.07;;
23155;SDS011;11746;50.876;4.246;2023-11-19T04:12:15;20.65;;;3.83;;
23155;SDS011;11746;50.876;4.246;2023-11-19T04:14:44;25.45;;;3.45;;
23155;SDS011;11746;50.876;4.246;2023-11-19T04:17:09;15.60;;;3.10;;
23155;SDS011;11746;50.876;4.246;2023-11-19T04:19:37;20.95;;;4.18;;
23155;SDS011;11746;50.876;4.246;2023-11-19T04:22:06;17.60;;;3.40;;
23155;SDS011;11746;50.876;4.246;2023-11-19T04:24:33;19.63;;;3.13;;
23155;SDS011;11746;50.876;4.246;2023-11-19T04:26:59;22.45;;;4.20;;
23155;SDS011;11746;50.876;4.246;2023-11-19T04:29:26;24.63;;;3.42;;
23155;SDS011;11746;50.876;4.246;2023-11-19T04:31:52;27.10;;;4.38;;
23155;SDS011;11746;50.876;4.246;2023-11-19T04:34:20;21.48;;;4.10;;
23155;SDS011;11746;50.876;4.246;2023-11-19T04:36:48;23.20;;;4.15;;
23155;SDS011;11746;50.876;4.246;2023-11-19T04:39:14;28.42;;;4.20;;
23155;SDS011;11746;50.876;4.246;2023-11-19T04:41:47;23.58;;;3.85;;
23155;SDS011;11746;50.876;4.246;2023-11-19T04:44:19;20.42;;;3.30;;
23155;SDS011;11746;50.876;4.246;2023-11-19T04:46:45;24.08;;;4.35;;
23155;SDS011;11746;50.876;4.246;2023-11-19T04:49:11;25.13;;;4.38;;
23155;SDS011;11746;50.876;4.246;2023-11-19T04:51:41;27.52;;;5.20;;
23155;SDS011;11746;50.876;4.246;2023-11-19T04:54:09;23.63;;;4.32;;
23155;SDS011;11746;50.876;4.246;2023-11-19T04:56:38;29.15;;;3.95;;
23155;SDS011;11746;50.876;4.246;2023-11-19T05:01:35;23.83;;;4.93;;
23155;SDS011;11746;50.876;4.246;2023-11-19T05:04:01;27.92;;;5.18;;
23155;SDS011;11746;50.876;4.246;2023-11-19T05:06:27;24.33;;;4.00;;
23155;SDS011;11746;50.876;4.246;2023-11-19T05:08:54;20.55;;;4.60;;
23155;SDS011;11746;50.876;4.246;2023-11-19T05:11:23;25.67;;;4.03;;
23155;SDS011;11746;50.876;4.246;2023-11-19T05:13:49;35.63;;;4.55;;
23155;SDS011;11746;50.876;4.246;2023-11-19T05:16:15;28.08;;;4.22;;
23155;SDS011;11746;50.876;4.246;2023-11-19T05:18:44;26.50;;;4.45;;
23155;SDS011;11746;50.876;4.246;2023-11-19T05:21:10;28.38;;;4.65;;
23155;SDS011;11746;50.876;4.246;2023-11-19T05:23:37;28.23;;;4.68;;
23155;SDS011;11746;50.876;4.246;2023-11-19T05:26:08;32.72;;;4.15;;
23155;SDS011;11746;50.876;4.246;2023-11-19T05:28:35;18.25;;;3.63;;
23155;SDS011;11746;50.876;4.246;2023-11-19T05:31:04;26.17;;;3.83;;
23155;SDS011;11746;50.876;4.246;2023-11-19T05:33:31;26.30;;;4.25;;
23155;SDS011;11746;50.876;4.246;2023-11-19T05:35:56;25.70;;;4.10;;
23155;SDS011;11746;50.876;4.246;2023-11-19T05:38:22;26.48;;;4.28;;
23155;SDS011;11746;50.876;4.246;2023-11-19T05:40:50;33.08;;;4.30;;
23155;SDS011;11746;50.876;4.246;2023-11-19T05:43:15;31.05;;;4.78;;
23155;SDS011;11746;50.876;4.246;2023-11-19T05:45:42;26.95;;;4.75;;
23155;SDS011;11746;50.876;4.246;2023-11-19T05:48:07;28.83;;;3.58;;
23155;SDS011;11746;50.876;4.246;2023-11-19T05:50:34;30.83;;;4.55;;
23155;SDS011;11746;50.876;4.246;2023-11-19T05:53:02;22.65;;;4.95;;
23155;SDS011;11746;50.876;4.246;2023-11-19T05:55:33;32.90;;;5.22;;
23155;SDS011;11746;50.876;4.246;2023-11-19T05:57:59;21.63;;;4.38;;
23155;SDS011;11746;50.876;4.246;2023-11-19T06:00:30;23.98;;;4.75;;
23155;SDS011;11746;50.876;4.246;2023-11-19T06:02:56;21.95;;;3.90;;
23155;SDS011;11746;50.876;4.246;2023-11-19T06:05:21;23.83;;;4.60;;
23155;SDS011;11746;50.876;4.246;2023-11-19T06:07:47;29.40;;;4.38;;
23155;SDS011;11746;50.876;4.246;2023-11-19T06:10:13;29.33;;;3.95;;
23155;SDS011;11746;50.876;4.246;2023-11-19T06:12:41;26.85;;;4.40;;
23155;SDS011;11746;50.876;4.246;2023-11-19T06:15:07;29.83;;;4.63;;
23155;SDS011;11746;50.876;4.246;2023-11-19T06:17:33;25.40;;;4.35;;
23155;SDS011;11746;50.876;4.246;2023-11-19T06:19:59;23.98;;;4.07;;
23155;SDS011;11746;50.876;4.246;2023-11-19T06:22:25;27.90;;;5.10;;
23155;SDS011;11746;50.876;4.246;2023-11-19T06:24:55;27.05;;;4.20;;
23155;SDS011;11746;50.876;4.246;2023-11-19T06:27:26;26.27;;;4.80;;
23155;SDS011;11746;50.876;4.246;2023-11-19T06:29:53;26.70;;;4.57;;
23155;SDS011;11746;50.876;4.246;2023-11-19T06:32:19;30.10;;;4.57;;
23155;SDS011;11746;50.876;4.246;2023-11-19T06:34:47;28.02;;;3.97;;
23155;SDS011;11746;50.876;4.246;2023-11-19T06:37:15;27.50;;;4.60;;
23155;SDS011;11746;50.876;4.246;2023-11-19T06:39:41;24.90;;;3.95;;
23155;SDS011;11746;50.876;4.246;2023-11-19T06:42:09;27.38;;;5.18;;
23155;SDS011;11746;50.876;4.246;2023-11-19T06:44:34;29.63;;;4.90;;
23155;SDS011;11746;50.876;4.246;2023-11-19T06:47:00;27.98;;;4.18;;
23155;SDS011;11746;50.876;4.246;2023-11-19T06:49:25;33.08;;;4.88;;
23155;SDS011;11746;50.876;4.246;2023-11-19T06:51:51;27.23;;;4.60;;
23155;SDS011;11746;50.876;4.246;2023-11-19T06:54:16;30.30;;;4.55;;
23155;SDS011;11746;50.876;4.246;2023-11-19T06:56:47;30.15;;;5.03;;
23155;SDS011;11746;50.876;4.246;2023-11-19T06:59:17;25.10;;;4.20;;
23155;SDS011;11746;50.876;4.246;2023-11-19T07:01:42;26.20;;;4.25;;
23155;SDS011;11746;50.876;4.246;2023-11-19T07:04:11;21.38;;;3.88;;
23155;SDS011;11746;50.876;4.246;2023-11-19T07:06:37;33.53;;;4.60;;
23155;SDS011;11746;50.876;4.246;2023-11-19T07:09:04;29.30;;;4.45;;
23155;SDS011;11746;50.876;4.246;2023-11-19T07:11:38;31.90;;;4.85;;
23155;SDS011;11746;50.876;4.246;2023-11-19T07:14:05;25.23;;;4.50;;
23155;SDS011;11746;50.876;4.246;2023-11-19T07:16:34;28.30;;;3.65;;
23155;SDS011;11746;50.876;4.246;2023-11-19T07:19:02;22.80;;;4.00;;
23155;SDS011;11746;50.876;4.246;2023-11-19T07:21:28;26.92;;;4.70;;
23155;SDS011;11746;50.876;4.246;2023-11-19T07:23:56;25.77;;;4.57;;
23155;SDS011;11746;50.876;4.246;2023-11-19T07:26:24;28.13;;;4.30;;
23155;SDS011;11746;50.876;4.246;2023-11-19T07:28:50;26.15;;;3.95;;
23155;SDS011;11746;50.876;4.246;2023-11-19T07:31:16;29.67;;;4.20;;
23155;SDS011;11746;50.876;4.246;2023-11-19T07:33:47;26.40;;;4.05;;
23155;SDS011;11746;50.876;4.246;2023-11-19T07:36:14;25.80;;;4.20;;
23155;SDS011;11746;50.876;4.246;2023-11-19T07:38:42;23.77;;;3.70;;
23155;SDS011;11746;50.876;4.246;2023-11-19T07:41:07;30.58;;;4.47;;
23155;SDS011;11746;50.876;4.246;2023-11-19T07:43:40;21.25;;;4.15;;
23155;SDS011;11746;50.876;4.246;2023-11-19T07:46:12;31.58;;;4.57;;
23155;SDS011;11746;50.876;4.246;2023-11-19T07:48:41;26.95;;;3.97;;
23155;SDS011;11746;50.876;4.246;2023-11-19T07:51:10;30.15;;;5.45;;
23155;SDS011;11746;50.876;4.246;2023-11-19T07:53:37;30.85;;;4.68;;
23155;SDS011;11746;50.876;4.246;2023-11-19T07:56:05;23.70;;;3.65;;
23155;SDS011;11746;50.876;4.246;2023-11-19T07:58:32;28.30;;;4.88;;
23155;SDS011;11746;50.876;4.246;2023-11-19T08:00:58;29.90;;;5.00;;
23155;SDS011;11746;50.876;4.246;2023-11-19T08:03:24;22.83;;;3.78;;
23155;SDS011;11746;50.876;4.246;2023-11-19T08:05:49;25.05;;;3.88;;
23155;SDS011;11746;50.876;4.246;2023-11-19T08:08:17;25.83;;;3.40;;
23155;SDS011;11746;50.876;4.246;2023-11-19T08:10:42;29.85;;;3.90;;
23155;SDS011;11746;50.876;4.246;2023-11-19T08:13:15;18.95;;;4.13;;
23155;SDS011;11746;50.876;4.246;2023-11-19T08:15:45;23.63;;;4.65;;
23155;SDS011;11746;50.876;4.246;2023-11-19T08:18:13;25.30;;;4.53;;
23155;SDS011;11746;50.876;4.246;2023-11-19T08:20:39;26.90;;;4.35;;
23155;SDS011;11746;50.876;4.246;2023-11-19T08:23:05;19.67;;;3.88;;
23155;SDS011;11746;50.876;4.246;2023-11-19T08:25:33;22.95;;;4.07;;
23155;SDS011;11746;50.876;4.246;2023-11-19T08:27:59;21.15;;;4.07;;
23155;SDS011;11746;50.876;4.246;2023-11-19T08:30:25;24.35;;;3.38;;
23155;SDS011;11746;50.876;4.246;2023-11-19T08:32:52;22.48;;;4.00;;
23155;SDS011;11746;50.876;4.246;2023-11-19T08:35:20;21.38;;;4.03;;
23155;SDS011;11746;50.876;4.246;2023-11-19T08:37:46;20.55;;;3.70;;
23155;SDS011;11746;50.876;4.246;2023-11-19T08:40:13;21.48;;;3.60;;
23155;SDS011;11746;50.876;4.246;2023-11-19T08:42:42;26.98;;;4.85;;
23155;SDS011;11746;50.876;4.246;2023-11-19T08:45:10;19.83;;;3.88;;
23155;SDS011;11746;50.876;4.246;2023-11-19T08:47:38;28.67;;;3.88;;
23155;SDS011;11746;50.876;4.246;2023-11-19T08:50:05;21.23;;;3.30;;
23155;SDS011;11746;50.876;4.246;2023-11-19T08:52:31;19.00;;;3.35;;
23155;SDS011;11746;50.876;4.246;2023-11-19T08:54:59;26.75;;;4.22;;
23155;SDS011;11746;50.876;4.246;2023-11-19T08:57:25;25.45;;;3.95;;
23155;SDS011;11746;50.876;4.246;2023-11-19T08:59:52;23.45;;;3.97;;
23155;SDS011;11746;50.876;4.246;2023-11-19T09:02:18;25.30;;;4.47;;
23155;SDS011;11746;50.876;4.246;2023-11-19T09:04:46;27.02;;;4.50;;
23155;SDS011;11746;50.876;4.246;2023-11-19T09:07:14;20.98;;;3.83;;
23155;SDS011;11746;50.876;4.246;2023-11-19T09:09:39;22.15;;;3.75;;
23155;SDS011;11746;50.876;4.246;2023-11-19T09:12:05;24.90;;;3.92;;
23155;SDS011;11746;50.876;4.246;2023-11-19T09:14:31;27.48;;;3.85;;
23155;SDS011;11746;50.876;4.246;2023-11-19T09:16:56;20.95;;;3.78;;
23155;SDS011;11746;50.876;4.246;2023-11-19T09:19:23;19.80;;;3.38;;
23155;SDS011;11746;50.876;4.246;2023-11-19T09:21:49;22.27;;;3.30;;
23155;SDS011;11746;50.876;4.246;2023-11-19T09:24:15;18.67;;;3.33;;
23155;SDS011;11746;50.876;4.246;2023-11-19T09:26:40;19.15;;;3.53;;
23155;SDS011;11746;50.876;4.246;2023-11-19T09:29:08;14.77;;;3.08;;
23155;SDS011;11746;50.876;4.246;2023-11-19T09:31:39;24.13;;;3.90;;
23155;SDS011;11746;50.876;4.246;2023-11-19T09:34:07;13.57;;;2.33;;
23155;SDS011;11746;50.876;4.246;2023-11-19T09:36:35;16.40;;;3.08;;
23155;SDS011;11746;50.876;4.246;2023-11-19T09:39:08;19.58;;;3.25;;
23155;SDS011;11746;50.876;4.246;2023-11-19T09:41:36;15.38;;;2.95;;
23155;SDS011;11746;50.876;4.246;2023-11-19T09:44:02;18.83;;;4.05;;
23155;SDS011;11746;50.876;4.246;2023-11-19T09:46:27;16.80;;;3.05;;
23155;SDS011;11746;50.876;4.246;2023-11-19T09:48:56;21.90;;;3.88;;
23155;SDS011;11746;50.876;4.246;2023-11-19T09:51:24;19.77;;;3.70;;
23155;SDS011;11746;50.876;4.246;2023-11-19T09:53:52;16.45;;;3.47;;
23155;SDS011;11746;50.876;4.246;2023-11-19T09:56:18;20.80;;;3.53;;
23155;SDS011;11746;50.876;4.246;2023-11-19T09:58:44;14.13;;;3.15;;
23155;SDS011;11746;50.876;4.246;2023-11-19T10:01:12;20.15;;;4.57;;
23155;SDS011;11746;50.876;4.246;2023-11-19T10:03:38;22.85;;;3.30;;
23155;SDS011;11746;50.876;4.246;2023-11-19T10:06:08;19.65;;;3.78;;
23155;SDS011;11746;50.876;4.246;2023-11-19T10:08:38;18.00;;;3.85;;
23155;SDS011;11746;50.876;4.246;2023-11-19T10:11:07;18.42;;;3.47;;
23155;SDS011;11746;50.876;4.246;2023-11-19T10:13:36;21.13;;;3.65;;
23155;SDS011;11746;50.876;4.246;2023-11-19T10:16:07;22.40;;;3.30;;
23155;SDS011;11746;50.876;4.246;2023-11-19T10:18:34;23.25;;;3.72;;
23155;SDS011;11746;50.876;4.246;2023-11-19T10:21:06;19.20;;;3.28;;
23155;SDS011;11746;50.876;4.246;2023-11-19T10:26:17;24.77;;;3.25;;
23155;SDS011;11746;50.876;4.246;2023-11-19T10:28:43;17.92;;;3.42;;
23155;SDS011;11746;50.876;4.246;2023-11-19T10:31:14;20.38;;;3.58;;
23155;SDS011;11746;50.876;4.246;2023-11-19T10:33:40;20.38;;;3.15;;
23155;SDS011;11746;50.876;4.246;2023-11-19T10:36:07;20.83;;;3.63;;
23155;SDS011;11746;50.876;4.246;2023-11-19T10:38:35;23.60;;;3.80;;
23155;SDS011;11746;50.876;4.246;2023-11-19T10:41:00;17.35;;;2.88;;
23155;SDS011;11746;50.876;4.246;2023-11-19T10:43:26;18.75;;;3.55;;
23155;SDS011;11746;50.876;4.246;2023-11-19T10:45:54;18.58;;;3.60;;
23155;SDS011;11746;50.876;4.246;2023-11-19T10:48:33;18.25;;;2.90;;
23155;SDS011;11746;50.876;4.246;2023-11-19T10:51:00;15.93;;;2.80;;
23155;SDS011;11746;50.876;4.246;2023-11-19T10:53:28;14.65;;;3.47;;
23155;SDS011;11746;50.876;4.246;2023-11-19T10:55:54;16.00;;;3.05;;
23155;SDS011;11746;50.876;4.246;2023-11-19T10:58:24;11.70;;;2.42;;
23155;SDS011;11746;50.876;4.246;2023-11-19T11:00:57;15.30;;;2.75;;
23155;SDS011;11746;50.876;4.246;2023-11-19T11:03:35;18.35;;;3.22;;
23155;SDS011;11746;50.876;4.246;2023-11-19T11:06:07;16.20;;;3.33;;
23155;SDS011;11746;50.876;4.246;2023-11-19T11:08:35;19.65;;;3.67;;
23155;SDS011;11746;50.876;4.246;2023-11-19T11:11:04;18.65;;;3.17;;
23155;SDS011;11746;50.876;4.246;2023-11-19T11:13:34;17.02;;;3.05;;
23155;SDS011;11746;50.876;4.246;2023-11-19T11:16:07;19.05;;;3.30;;
23155;SDS011;11746;50.876;4.246;2023-11-19T11:18:33;18.48;;;3.47;;
23155;SDS011;11746;50.876;4.246;2023-11-19T11:21:00;19.23;;;3.20;;
23155;SDS011;11746;50.876;4.246;2023-11-19T11:28:56;19.75;;;3.08;;
23155;SDS011;11746;50.876;4.246;2023-11-19T11:39:35;19.90;;;3.03;;
23155;SDS011;11746;50.876;4.246;2023-11-19T11:45:16;19.60;;;3.60;;
23155;SDS011;11746;50.876;4.246;2023-11-19T11:50:10;17.90;;;3.92;;
23155;SDS011;11746;50.876;4.246;2023-11-19T11:55:36;19.27;;;3.10;;
23155;SDS011;11746;50.876;4.246;2023-11-19T11:58:20;15.90;;;3.38;;
23155;SDS011;11746;50.876;4.246;2023-11-19T12:00:47;19.30;;;4.05;;
23155;SDS011;11746;50.876;4.246;2023-11-19T12:03:13;22.30;;;4.28;;
23155;SDS011;11746;50.876;4.246;2023-11-19T12:05:42;16.60;;;3.55;;
23155;SDS011;11746;50.876;4.246;2023-11-19T12:08:10;19.40;;;3.72;;
23155;SDS011;11746;50.876;4.246;2023-11-19T12:10:47;14.52;;;3.05;;
23155;SDS011;11746;50.876;4.246;2023-11-19T12:13:13;17.50;;;2.55;;
23155;SDS011;11746;50.876;4.246;2023-11-19T12:18:21;14.65;;;2.58;;
23155;SDS011;11746;50.876;4.246;2023-11-19T12:20:50;14.52;;;3.10;;
23155;SDS011;11746;50.876;4.246;2023-11-19T12:23:16;17.65;;;2.80;;
23155;SDS011;11746;50.876;4.246;2023-11-19T12:25:42;14.82;;;2.45;;
23155;SDS011;11746;50.876;4.246;2023-11-19T12:28:13;14.38;;;2.70;;
23155;SDS011;11746;50.876;4.246;2023-11-19T12:30:42;12.70;;;2.00;;
23155;SDS011;11746;50.876;4.246;2023-11-19T12:33:11;16.13;;;3.33;;
23155;SDS011;11746;50.876;4.246;2023-11-19T12:35:40;16.05;;;2.70;;
23155;SDS011;11746;50.876;4.246;2023-11-19T12:38:22;14.15;;;2.72;;
23155;SDS011;11746;50.876;4.246;2023-11-19T12:41:02;21.08;;;3.40;;
23155;SDS011;11746;50.876;4.246;2023-11-19T12:43:28;12.90;;;2.80;;
23155;SDS011;11746;50.876;4.246;2023-11-19T12:45:59;20.25;;;3.88;;
23155;SDS011;11746;50.876;4.246;2023-11-19T12:48:25;18.42;;;2.70;;
23155;SDS011;11746;50.876;4.246;2023-11-19T12:50:56;17.88;;;3.58;;
23155;SDS011;11746;50.876;4.246;2023-11-19T12:53:24;18.95;;;4.00;;
23155;SDS011;11746;50.876;4.246;2023-11-19T12:55:54;20.10;;;4.05;;
23155;SDS011;11746;50.876;4.246;2023-11-19T13:00:59;21.02;;;3.55;;
23155;SDS011;11746;50.876;4.246;2023-11-19T13:03:31;15.77;;;3.03;;
23155;SDS011;11746;50.876;4.246;2023-11-19T13:06:01;19.90;;;3.50;;
23155;SDS011;11746;50.876;4.246;2023-11-19T13:08:28;22.73;;;4.53;;
23155;SDS011;11746;50.876;4.246;2023-11-19T13:11:01;18.20;;;3.65;;
23155;SDS011;11746;50.876;4.246;2023-11-19T13:13:31;22.85;;;4.53;;
23155;SDS011;11746;50.876;4.246;2023-11-19T13:16:03;15.80;;;3.03;;
23155;SDS011;11746;50.876;4.246;2023-11-19T13:18:33;18.83;;;2.90;;
23155;SDS011;11746;50.876;4.246;2023-11-19T13:21:01;16.83;;;3.53;;
23155;SDS011;11746;50.876;4.246;2023-11-19T13:23:27;17.15;;;3.35;;
23155;SDS011;11746;50.876;4.246;2023-11-19T13:25:53;19.83;;;2.95;;
23155;SDS011;11746;50.876;4.246;2023-11-19T13:28:21;13.23;;;2.78;;
23155;SDS011;11746;50.876;4.246;2023-11-19T13:30:48;16.17;;;3.63;;
23155;SDS011;11746;50.876;4.246;2023-11-19T13:33:18;18.02;;;3.58;;
23155;SDS011;11746;50.876;4.246;2023-11-19T13:35:46;13.27;;;3.50;;
23155;SDS011;11746;50.876;4.246;2023-11-19T13:38:14;19.85;;;3.35;;
23155;SDS011;11746;50.876;4.246;2023-11-19T13:40:42;18.27;;;3.13;;
23155;SDS011;11746;50.876;4.246;2023-11-19T13:43:08;19.65;;;3.65;;
23155;SDS011;11746;50.876;4.246;2023-11-19T13:45:34;15.45;;;3.08;;
23155;SDS011;11746;50.876;4.246;2023-11-19T13:47:59;15.98;;;2.83;;
23155;SDS011;11746;50.876;4.246;2023-11-19T13:50:27;15.80;;;4.57;;
23155;SDS011;11746;50.876;4.246;2023-11-19T13:52:53;22.02;;;3.90;;
23155;SDS011;11746;50.876;4.246;2023-11-19T13:55:22;17.02;;;3.15;;
23155;SDS011;11746;50.876;4.246;2023-11-19T13:57:48;21.98;;;4.22;;
23155;SDS011;11746;50.876;4.246;2023-11-19T14:00:14;20.90;;;3.53;;
23155;SDS011;11746;50.876;4.246;2023-11-19T14:02:44;19.63;;;3.40;;
23155;SDS011;11746;50.876;4.246;2023-11-19T14:05:14;18.30;;;3.90;;
23155;SDS011;11746;50.876;4.246;2023-11-19T14:07:44;24.08;;;4.38;;
23155;SDS011;11746;50.876;4.246;2023-11-19T14:10:16;16.88;;;3.30;;
23155;SDS011;11746;50.876;4.246;2023-11-19T14:12:42;17.60;;;2.60;;
23155;SDS011;11746;50.876;4.246;2023-11-19T14:15:10;13.20;;;2.65;;
23155;SDS011;11746;50.876;4.246;2023-11-19T14:17:39;15.82;;;3.42;;
23155;SDS011;11746;50.876;4.246;2023-11-19T14:20:07;24.77;;;4.28;;
23155;SDS011;11746;50.876;4.246;2023-11-19T14:22:40;22.77;;;3.55;;
23155;SDS011;11746;50.876;4.246;2023-11-19T14:25:08;22.45;;;4.18;;
23155;SDS011;11746;50.876;4.246;2023-11-19T14:27:40;14.73;;;3.13;;
23155;SDS011;11746;50.876;4.246;2023-11-19T14:30:07;21.88;;;3.47;;
23155;SDS011;11746;50.876;4.246;2023-11-19T14:32:41;24.02;;;3.92;;
23155;SDS011;11746;50.876;4.246;2023-11-19T14:35:09;15.73;;;3.20;;
23155;SDS011;11746;50.876;4.246;2023-11-19T14:37:35;20.65;;;3.92;;
23155;SDS011;11746;50.876;4.246;2023-11-19T14:40:01;22.27;;;3.65;;
23155;SDS011;11746;50.876;4.246;2023-11-19T14:42:30;27.58;;;4.50;;
23155;SDS011;11746;50.876;4.246;2023-11-19T14:44:56;26.30;;;4.15;;
23155;SDS011;11746;50.876;4.246;2023-11-19T14:47:22;19.80;;;3.95;;
23155;SDS011;11746;50.876;4.246;2023-11-19T14:49:50;20.45;;;4.25;;
23155;SDS011;11746;50.876;4.246;2023-11-19T14:52:15;22.25;;;4.00;;
23155;SDS011;11746;50.876;4.246;2023-11-19T14:54:41;16.45;;;4.07;;
23155;SDS011;11746;50.876;4.246;2023-11-19T14:57:07;19.98;;;3.88;;
23155;SDS011;11746;50.876;4.246;2023-11-19T14:59:35;24.55;;;3.50;;
23155;SDS011;11746;50.876;4.246;2023-11-19T15:02:02;19.70;;;3.58;;
23155;SDS011;11746;50.876;4.246;2023-11-19T15:04:30;20.65;;;3.28;;
23155;SDS011;11746;50.876;4.246;2023-11-19T15:06:56;23.02;;;4.00;;
23155;SDS011;11746;50.876;4.246;2023-11-19T15:09:23;21.20;;;4.53;;
23155;SDS011;11746;50.876;4.246;2023-11-19T15:11:51;22.23;;;3.78;;
23155;SDS011;11746;50.876;4.246;2023-11-19T15:14:19;18.23;;;3.35;;